sensor_id;sensor_type;location;lat;lon;timestamp;temperature;humidity
59025;DHT22;44806;48.008;13.666;2022-09-09T00:00:58;13.80;99.90
59025;DHT22;44806;48.008;13.666;2022-09-09T00:03:27;13.80;99.90
59025;DHT22;44806;48.008;13.666;2022-09-09T00:06:02;13.80;99.90
59025;DHT22;44806;48.008;13.666;2022-09-09T00:08:39;13.80;99.90
59025;DHT22;44806;48.008;13.666;2022-09-09T00:11:11;13.80;99.90
59025;DHT22;44806;48.008;13.666;2022-09-09T00:13:46;13.70;99.90
59025;DHT22;44806;48.008;13.666;2022-09-09T00:16:19;13.60;99.90
59025;DHT22;44806;48.008;13.666;2022-09-09T00:18:55;13.50;99.90
59025;DHT22;44806;48.008;13.666;2022-09-09T00:21:27;13.50;99.90
59025;DHT22;44806;48.008;13.666;2022-09-09T00:23:58;13.40;99.90
59025;DHT22;44806;48.008;13.666;2022-09-09T00:26:31;13.40;99.90
59025;DHT22;44806;48.008;13.666;2022-09-09T00:29:05;13.50;99.90
59025;DHT22;44806;48.008;13.666;2022-09-09T00:31:35;13.50;99.90
59025;DHT22;44806;48.008;13.666;2022-09-09T00:34:14;13.50;99.90
59025;DHT22;44806;48.008;13.666;2022-09-09T00:36:42;13.50;99.90
59025;DHT22;44806;48.008;13.666;2022-09-09T00:39:17;13.60;99.90
59025;DHT22;44806;48.008;13.666;2022-09-09T00:41:53;13.60;99.90
59025;DHT22;44806;48.008;13.666;2022-09-09T00:44:30;13.60;99.90
59025;DHT22;44806;48.008;13.666;2022-09-09T00:47:09;13.70;99.90
59025;DHT22;44806;48.008;13.666;2022-09-09T00:49:45;13.70;99.90
59025;DHT22;44806;48.008;13.666;2022-09-09T00:52:26;13.70;99.90
59025;DHT22;44806;48.008;13.666;2022-09-09T00:55:03;13.70;99.90
59025;DHT22;44806;48.008;13.666;2022-09-09T00:57:35;13.70;99.90
59025;DHT22;44806;48.008;13.666;2022-09-09T01:00:20;13.70;99.90
59025;DHT22;44806;48.008;13.666;2022-09-09T01:02:53;13.70;99.90
59025;DHT22;44806;48.008;13.666;2022-09-09T01:05:29;13.70;99.90
59025;DHT22;44806;48.008;13.666;2022-09-09T01:07:58;13.60;99.90
59025;DHT22;44806;48.008;13.666;2022-09-09T01:10:36;13.50;99.90
59025;DHT22;44806;48.008;13.666;2022-09-09T01:13:11;13.40;99.90
59025;DHT22;44806;48.008;13.666;2022-09-09T01:15:43;13.40;99.90
59025;DHT22;44806;48.008;13.666;2022-09-09T01:18:14;13.40;99.90
59025;DHT22;44806;48.008;13.666;2022-09-09T01:20:49;13.40;99.90
59025;DHT22;44806;48.008;13.666;2022-09-09T01:23:48;13.50;99.90
59025;DHT22;44806;48.008;13.666;2022-09-09T01:26:30;13.50;99.90
59025;DHT22;44806;48.008;13.666;2022-09-09T01:28:59;13.40;99.90
59025;DHT22;44806;48.008;13.666;2022-09-09T01:31:29;13.30;99.90
59025;DHT22;44806;48.008;13.666;2022-09-09T01:33:58;13.20;99.90
59025;DHT22;44806;48.008;13.666;2022-09-09T01:36:32;13.20;99.90
59025;DHT22;44806;48.008;13.666;2022-09-09T01:39:00;13.20;99.90
59025;DHT22;44806;48.008;13.666;2022-09-09T01:41:29;13.30;99.90
59025;DHT22;44806;48.008;13.666;2022-09-09T01:43:57;13.40;99.90
59025;DHT22;44806;48.008;13.666;2022-09-09T01:46:24;13.40;99.90
59025;DHT22;44806;48.008;13.666;2022-09-09T01:48:52;13.50;99.90
59025;DHT22;44806;48.008;13.666;2022-09-09T01:51:20;13.50;99.90
59025;DHT22;44806;48.008;13.666;2022-09-09T01:53:48;13.50;99.90
59025;DHT22;44806;48.008;13.666;2022-09-09T01:56:30;13.50;99.90
59025;DHT22;44806;48.008;13.666;2022-09-09T01:59:16;13.50;99.90
59025;DHT22;44806;48.008;13.666;2022-09-09T02:01:53;13.60;99.90
59025;DHT22;44806;48.008;13.666;2022-09-09T02:04:36;13.60;99.90
59025;DHT22;44806;48.008;13.666;2022-09-09T02:07:08;13.60;99.90
59025;DHT22;44806;48.008;13.666;2022-09-09T02:09:40;13.60;99.90
59025;DHT22;44806;48.008;13.666;2022-09-09T02:12:14;13.60;99.90
59025;DHT22;44806;48.008;13.666;2022-09-09T02:14:48;13.60;99.90
59025;DHT22;44806;48.008;13.666;2022-09-09T02:17:25;13.60;99.90
59025;DHT22;44806;48.008;13.666;2022-09-09T02:19:57;13.50;99.90
59025;DHT22;44806;48.008;13.666;2022-09-09T02:22:27;13.50;99.90
59025;DHT22;44806;48.008;13.666;2022-09-09T02:24:58;13.60;99.90
59025;DHT22;44806;48.008;13.666;2022-09-09T02:27:29;13.60;99.90
59025;DHT22;44806;48.008;13.666;2022-09-09T02:29:58;13.60;99.90
59025;DHT22;44806;48.008;13.666;2022-09-09T02:32:30;13.60;99.90
59025;DHT22;44806;48.008;13.666;2022-09-09T02:35:00;13.60;99.90
59025;DHT22;44806;48.008;13.666;2022-09-09T02:37:34;13.60;99.90
59025;DHT22;44806;48.008;13.666;2022-09-09T02:40:02;13.60;99.90
59025;DHT22;44806;48.008;13.666;2022-09-09T02:42:31;13.60;99.90
59025;DHT22;44806;48.008;13.666;2022-09-09T02:44:59;13.70;99.90
59025;DHT22;44806;48.008;13.666;2022-09-09T02:47:32;13.60;99.90
59025;DHT22;44806;48.008;13.666;2022-09-09T02:50:08;13.60;99.90
59025;DHT22;44806;48.008;13.666;2022-09-09T02:52:46;13.60;99.90
59025;DHT22;44806;48.008;13.666;2022-09-09T02:55:19;13.60;99.90
59025;DHT22;44806;48.008;13.666;2022-09-09T02:57:52;13.60;99.90
59025;DHT22;44806;48.008;13.666;2022-09-09T03:00:24;13.60;99.90
59025;DHT22;44806;48.008;13.666;2022-09-09T03:02:53;13.60;99.90
59025;DHT22;44806;48.008;13.666;2022-09-09T03:05:21;13.60;99.90
59025;DHT22;44806;48.008;13.666;2022-09-09T03:07:48;13.60;99.90
59025;DHT22;44806;48.008;13.666;2022-09-09T03:10:16;13.60;99.90
59025;DHT22;44806;48.008;13.666;2022-09-09T03:12:43;13.60;99.90
59025;DHT22;44806;48.008;13.666;2022-09-09T03:15:12;13.50;99.90
59025;DHT22;44806;48.008;13.666;2022-09-09T03:17:40;13.50;99.90
59025;DHT22;44806;48.008;13.666;2022-09-09T03:20:08;13.50;99.90
59025;DHT22;44806;48.008;13.666;2022-09-09T03:22:37;13.50;99.90
59025;DHT22;44806;48.008;13.666;2022-09-09T03:25:05;13.50;99.90
59025;DHT22;44806;48.008;13.666;2022-09-09T03:27:32;13.50;99.90
59025;DHT22;44806;48.008;13.666;2022-09-09T03:30:00;13.50;99.90
59025;DHT22;44806;48.008;13.666;2022-09-09T03:32:30;13.50;99.90
59025;DHT22;44806;48.008;13.666;2022-09-09T03:34:57;13.40;99.90
59025;DHT22;44806;48.008;13.666;2022-09-09T03:37:24;13.50;99.90
59025;DHT22;44806;48.008;13.666;2022-09-09T03:39:54;13.50;99.90
59025;DHT22;44806;48.008;13.666;2022-09-09T03:42:22;13.50;99.90
59025;DHT22;44806;48.008;13.666;2022-09-09T03:44:49;13.40;99.90
59025;DHT22;44806;48.008;13.666;2022-09-09T03:47:17;13.40;99.90
59025;DHT22;44806;48.008;13.666;2022-09-09T03:49:46;13.50;99.90
59025;DHT22;44806;48.008;13.666;2022-09-09T03:52:14;13.40;99.90
59025;DHT22;44806;48.008;13.666;2022-09-09T03:54:41;13.40;99.90
59025;DHT22;44806;48.008;13.666;2022-09-09T03:57:09;13.40;99.90
59025;DHT22;44806;48.008;13.666;2022-09-09T03:59:36;13.40;99.90
59025;DHT22;44806;48.008;13.666;2022-09-09T04:02:04;13.40;99.90
59025;DHT22;44806;48.008;13.666;2022-09-09T04:04:31;13.40;99.90
59025;DHT22;44806;48.008;13.666;2022-09-09T04:07:00;13.40;99.90
59025;DHT22;44806;48.008;13.666;2022-09-09T04:09:27;13.40;99.90
59025;DHT22;44806;48.008;13.666;2022-09-09T04:11:54;13.40;99.90
59025;DHT22;44806;48.008;13.666;2022-09-09T04:14:22;13.40;99.90
59025;DHT22;44806;48.008;13.666;2022-09-09T04:16:49;13.40;99.90
59025;DHT22;44806;48.008;13.666;2022-09-09T04:19:16;13.40;99.90
59025;DHT22;44806;48.008;13.666;2022-09-09T04:21:43;13.40;99.90
59025;DHT22;44806;48.008;13.666;2022-09-09T04:24:11;13.40;99.90
59025;DHT22;44806;48.008;13.666;2022-09-09T04:26:38;13.40;99.90
59025;DHT22;44806;48.008;13.666;2022-09-09T04:29:06;13.40;99.90
59025;DHT22;44806;48.008;13.666;2022-09-09T04:31:33;13.50;99.90
59025;DHT22;44806;48.008;13.666;2022-09-09T04:34:01;13.50;99.90
59025;DHT22;44806;48.008;13.666;2022-09-09T04:36:31;13.50;99.90
59025;DHT22;44806;48.008;13.666;2022-09-09T04:38:59;13.50;99.90
59025;DHT22;44806;48.008;13.666;2022-09-09T04:41:28;13.50;99.90
59025;DHT22;44806;48.008;13.666;2022-09-09T04:43:57;13.50;99.90
59025;DHT22;44806;48.008;13.666;2022-09-09T04:46:25;13.50;99.90
59025;DHT22;44806;48.008;13.666;2022-09-09T04:48:53;13.50;99.90
59025;DHT22;44806;48.008;13.666;2022-09-09T04:51:20;13.50;99.90
59025;DHT22;44806;48.008;13.666;2022-09-09T04:53:47;13.50;99.90
59025;DHT22;44806;48.008;13.666;2022-09-09T04:56:17;13.50;99.90
59025;DHT22;44806;48.008;13.666;2022-09-09T04:58:46;13.60;99.90
59025;DHT22;44806;48.008;13.666;2022-09-09T05:01:15;13.60;99.90
59025;DHT22;44806;48.008;13.666;2022-09-09T05:03:43;13.60;99.90
59025;DHT22;44806;48.008;13.666;2022-09-09T05:06:12;13.60;99.90
59025;DHT22;44806;48.008;13.666;2022-09-09T05:08:41;13.70;99.90
59025;DHT22;44806;48.008;13.666;2022-09-09T05:11:16;13.70;99.90
59025;DHT22;44806;48.008;13.666;2022-09-09T05:13:44;13.60;99.90
59025;DHT22;44806;48.008;13.666;2022-09-09T05:16:13;13.50;99.90
59025;DHT22;44806;48.008;13.666;2022-09-09T05:18:41;13.60;99.90
59025;DHT22;44806;48.008;13.666;2022-09-09T05:21:09;13.70;99.90
59025;DHT22;44806;48.008;13.666;2022-09-09T05:23:37;13.80;99.90
59025;DHT22;44806;48.008;13.666;2022-09-09T05:26:08;13.80;99.90
59025;DHT22;44806;48.008;13.666;2022-09-09T05:28:36;13.80;99.90
59025;DHT22;44806;48.008;13.666;2022-09-09T05:31:04;13.90;99.90
59025;DHT22;44806;48.008;13.666;2022-09-09T05:33:35;14.00;99.90
59025;DHT22;44806;48.008;13.666;2022-09-09T05:36:04;14.10;99.90
59025;DHT22;44806;48.008;13.666;2022-09-09T05:38:32;14.10;99.90
59025;DHT22;44806;48.008;13.666;2022-09-09T05:40:59;14.10;99.90
59025;DHT22;44806;48.008;13.666;2022-09-09T05:43:28;14.00;99.90
59025;DHT22;44806;48.008;13.666;2022-09-09T05:46:02;14.00;99.90
59025;DHT22;44806;48.008;13.666;2022-09-09T05:48:30;14.10;99.90
59025;DHT22;44806;48.008;13.666;2022-09-09T05:50:59;14.20;99.90
59025;DHT22;44806;48.008;13.666;2022-09-09T05:53:27;14.20;99.90
59025;DHT22;44806;48.008;13.666;2022-09-09T05:56:02;14.30;99.90
59025;DHT22;44806;48.008;13.666;2022-09-09T05:58:30;14.30;99.90
59025;DHT22;44806;48.008;13.666;2022-09-09T06:01:02;14.30;99.90
59025;DHT22;44806;48.008;13.666;2022-09-09T06:03:29;14.40;99.90
59025;DHT22;44806;48.008;13.666;2022-09-09T06:05:59;14.50;99.90
59025;DHT22;44806;48.008;13.666;2022-09-09T06:08:27;14.50;99.90
59025;DHT22;44806;48.008;13.666;2022-09-09T06:11:00;14.50;99.90
59025;DHT22;44806;48.008;13.666;2022-09-09T06:13:28;14.60;99.90
59025;DHT22;44806;48.008;13.666;2022-09-09T06:15:55;14.60;99.90
59025;DHT22;44806;48.008;13.666;2022-09-09T06:18:24;14.70;99.90
59025;DHT22;44806;48.008;13.666;2022-09-09T06:20:56;14.70;99.90
59025;DHT22;44806;48.008;13.666;2022-09-09T06:23:25;14.80;99.90
59025;DHT22;44806;48.008;13.666;2022-09-09T06:26:01;14.80;99.90
59025;DHT22;44806;48.008;13.666;2022-09-09T06:28:28;14.70;99.90
59025;DHT22;44806;48.008;13.666;2022-09-09T06:30:58;14.70;99.90
59025;DHT22;44806;48.008;13.666;2022-09-09T06:33:26;14.80;99.90
59025;DHT22;44806;48.008;13.666;2022-09-09T06:35:53;14.80;99.90
59025;DHT22;44806;48.008;13.666;2022-09-09T06:38:23;14.80;99.90
59025;DHT22;44806;48.008;13.666;2022-09-09T06:40:56;15.00;99.90
59025;DHT22;44806;48.008;13.666;2022-09-09T06:43:24;15.00;99.90
59025;DHT22;44806;48.008;13.666;2022-09-09T06:45:55;15.20;99.90
59025;DHT22;44806;48.008;13.666;2022-09-09T06:48:22;15.30;99.90
59025;DHT22;44806;48.008;13.666;2022-09-09T06:50:52;15.40;99.90
59025;DHT22;44806;48.008;13.666;2022-09-09T06:53:26;15.50;99.90
59025;DHT22;44806;48.008;13.666;2022-09-09T06:55:55;15.50;99.90
59025;DHT22;44806;48.008;13.666;2022-09-09T06:58:22;15.40;99.90
59025;DHT22;44806;48.008;13.666;2022-09-09T07:00:49;15.20;99.90
59025;DHT22;44806;48.008;13.666;2022-09-09T07:03:17;15.20;99.90
59025;DHT22;44806;48.008;13.666;2022-09-09T07:05:53;15.30;99.90
59025;DHT22;44806;48.008;13.666;2022-09-09T07:08:20;15.40;99.90
59025;DHT22;44806;48.008;13.666;2022-09-09T07:10:48;15.40;99.90
59025;DHT22;44806;48.008;13.666;2022-09-09T07:13:16;15.60;99.90
59025;DHT22;44806;48.008;13.666;2022-09-09T07:15:46;15.60;99.90
59025;DHT22;44806;48.008;13.666;2022-09-09T07:18:14;15.70;99.90
59025;DHT22;44806;48.008;13.666;2022-09-09T07:20:41;15.80;99.90
59025;DHT22;44806;48.008;13.666;2022-09-09T07:23:08;15.90;99.90
59025;DHT22;44806;48.008;13.666;2022-09-09T07:25:35;15.90;99.90
59025;DHT22;44806;48.008;13.666;2022-09-09T07:28:03;16.00;99.90
59025;DHT22;44806;48.008;13.666;2022-09-09T07:30:32;16.10;99.90
59025;DHT22;44806;48.008;13.666;2022-09-09T07:32:59;16.00;99.90
59025;DHT22;44806;48.008;13.666;2022-09-09T07:35:26;15.90;99.90
59025;DHT22;44806;48.008;13.666;2022-09-09T07:37:53;15.90;99.90
59025;DHT22;44806;48.008;13.666;2022-09-09T07:40:20;16.00;99.90
59025;DHT22;44806;48.008;13.666;2022-09-09T07:42:47;16.10;99.90
59025;DHT22;44806;48.008;13.666;2022-09-09T07:45:15;16.10;99.90
59025;DHT22;44806;48.008;13.666;2022-09-09T07:47:43;16.20;99.90
59025;DHT22;44806;48.008;13.666;2022-09-09T07:50:11;16.20;99.90
59025;DHT22;44806;48.008;13.666;2022-09-09T07:52:41;16.20;99.90
59025;DHT22;44806;48.008;13.666;2022-09-09T07:55:11;16.30;99.90
59025;DHT22;44806;48.008;13.666;2022-09-09T07:57:38;16.20;99.90
59025;DHT22;44806;48.008;13.666;2022-09-09T08:00:06;16.20;99.90
59025;DHT22;44806;48.008;13.666;2022-09-09T08:02:34;16.30;99.90
59025;DHT22;44806;48.008;13.666;2022-09-09T08:05:02;16.40;99.90
59025;DHT22;44806;48.008;13.666;2022-09-09T08:07:32;16.30;99.90
59025;DHT22;44806;48.008;13.666;2022-09-09T08:09:59;16.40;99.90
59025;DHT22;44806;48.008;13.666;2022-09-09T08:12:28;16.40;99.90
59025;DHT22;44806;48.008;13.666;2022-09-09T08:14:55;16.30;99.90
59025;DHT22;44806;48.008;13.666;2022-09-09T08:17:22;16.30;99.90
59025;DHT22;44806;48.008;13.666;2022-09-09T08:19:49;16.20;99.90
59025;DHT22;44806;48.008;13.666;2022-09-09T08:22:19;16.40;99.90
59025;DHT22;44806;48.008;13.666;2022-09-09T08:24:46;16.40;99.90
59025;DHT22;44806;48.008;13.666;2022-09-09T08:27:13;16.50;99.90
59025;DHT22;44806;48.008;13.666;2022-09-09T08:29:40;16.60;99.90
59025;DHT22;44806;48.008;13.666;2022-09-09T08:32:08;16.60;99.90
59025;DHT22;44806;48.008;13.666;2022-09-09T08:34:35;16.70;99.90
59025;DHT22;44806;48.008;13.666;2022-09-09T08:37:02;16.70;99.90
59025;DHT22;44806;48.008;13.666;2022-09-09T08:39:31;16.60;99.90
59025;DHT22;44806;48.008;13.666;2022-09-09T08:42:28;16.70;99.90
59025;DHT22;44806;48.008;13.666;2022-09-09T08:45:17;16.80;99.90
59025;DHT22;44806;48.008;13.666;2022-09-09T08:47:54;16.90;99.90
59025;DHT22;44806;48.008;13.666;2022-09-09T08:50:26;16.80;99.90
59025;DHT22;44806;48.008;13.666;2022-09-09T08:53:00;16.90;99.90
59025;DHT22;44806;48.008;13.666;2022-09-09T08:55:36;16.90;99.90
59025;DHT22;44806;48.008;13.666;2022-09-09T08:58:10;16.80;99.90
59025;DHT22;44806;48.008;13.666;2022-09-09T09:03:38;16.90;99.90
59025;DHT22;44806;48.008;13.666;2022-09-09T09:06:20;17.00;99.90
59025;DHT22;44806;48.008;13.666;2022-09-09T09:08:58;16.90;99.90
59025;DHT22;44806;48.008;13.666;2022-09-09T09:11:28;16.90;99.90
59025;DHT22;44806;48.008;13.666;2022-09-09T09:14:03;16.90;99.90
59025;DHT22;44806;48.008;13.666;2022-09-09T09:16:41;17.00;99.90
59025;DHT22;44806;48.008;13.666;2022-09-09T09:19:13;17.00;99.90
59025;DHT22;44806;48.008;13.666;2022-09-09T09:21:43;17.10;99.90
59025;DHT22;44806;48.008;13.666;2022-09-09T09:24:18;17.20;99.90
59025;DHT22;44806;48.008;13.666;2022-09-09T09:26:47;17.10;99.90
59025;DHT22;44806;48.008;13.666;2022-09-09T09:29:16;17.10;99.90
59025;DHT22;44806;48.008;13.666;2022-09-09T09:31:46;17.20;99.90
59025;DHT22;44806;48.008;13.666;2022-09-09T09:34:15;17.30;99.90
59025;DHT22;44806;48.008;13.666;2022-09-09T09:36:45;17.30;99.90
59025;DHT22;44806;48.008;13.666;2022-09-09T09:39:23;17.30;99.90
59025;DHT22;44806;48.008;13.666;2022-09-09T09:41:52;17.40;99.90
59025;DHT22;44806;48.008;13.666;2022-09-09T09:44:26;17.40;99.90
59025;DHT22;44806;48.008;13.666;2022-09-09T09:47:04;17.50;99.90
59025;DHT22;44806;48.008;13.666;2022-09-09T09:49:32;17.50;99.90
59025;DHT22;44806;48.008;13.666;2022-09-09T09:52:00;17.70;99.90
59025;DHT22;44806;48.008;13.666;2022-09-09T09:54:29;17.70;99.90
59025;DHT22;44806;48.008;13.666;2022-09-09T09:57:08;17.70;99.90
59025;DHT22;44806;48.008;13.666;2022-09-09T09:59:36;17.80;99.90
59025;DHT22;44806;48.008;13.666;2022-09-09T10:02:23;17.90;99.90
59025;DHT22;44806;48.008;13.666;2022-09-09T10:05:01;18.00;99.90
59025;DHT22;44806;48.008;13.666;2022-09-09T10:07:29;18.00;99.90
59025;DHT22;44806;48.008;13.666;2022-09-09T10:09:57;18.00;99.90
59025;DHT22;44806;48.008;13.666;2022-09-09T10:12:42;18.00;99.90
59025;DHT22;44806;48.008;13.666;2022-09-09T10:15:25;18.00;99.90
59025;DHT22;44806;48.008;13.666;2022-09-09T10:18:00;18.00;99.90
59025;DHT22;44806;48.008;13.666;2022-09-09T10:20:36;18.00;99.90
59025;DHT22;44806;48.008;13.666;2022-09-09T10:23:16;18.10;99.90
59025;DHT22;44806;48.008;13.666;2022-09-09T10:26:01;18.10;99.90
59025;DHT22;44806;48.008;13.666;2022-09-09T10:28:52;18.10;99.90
59025;DHT22;44806;48.008;13.666;2022-09-09T10:31:29;18.10;99.90
59025;DHT22;44806;48.008;13.666;2022-09-09T10:34:05;18.10;99.90
59025;DHT22;44806;48.008;13.666;2022-09-09T10:36:43;18.20;99.90
59025;DHT22;44806;48.008;13.666;2022-09-09T10:39:22;18.20;99.90
59025;DHT22;44806;48.008;13.666;2022-09-09T10:42:03;18.20;99.90
59025;DHT22;44806;48.008;13.666;2022-09-09T10:44:55;18.00;99.90
59025;DHT22;44806;48.008;13.666;2022-09-09T10:47:52;17.90;99.90
59025;DHT22;44806;48.008;13.666;2022-09-09T10:50:49;17.90;99.90
59025;DHT22;44806;48.008;13.666;2022-09-09T10:53:24;17.90;99.90
59025;DHT22;44806;48.008;13.666;2022-09-09T10:55:59;18.00;99.90
59025;DHT22;44806;48.008;13.666;2022-09-09T10:58:31;17.90;99.90
59025;DHT22;44806;48.008;13.666;2022-09-09T11:01:10;17.80;99.90
59025;DHT22;44806;48.008;13.666;2022-09-09T11:03:42;17.70;99.90
59025;DHT22;44806;48.008;13.666;2022-09-09T11:06:13;17.70;99.90
59025;DHT22;44806;48.008;13.666;2022-09-09T11:08:42;17.70;99.90
59025;DHT22;44806;48.008;13.666;2022-09-09T11:11:12;17.80;99.90
59025;DHT22;44806;48.008;13.666;2022-09-09T11:13:47;17.90;99.90
59025;DHT22;44806;48.008;13.666;2022-09-09T11:16:25;18.00;99.90
59025;DHT22;44806;48.008;13.666;2022-09-09T11:18:57;18.00;99.90
59025;DHT22;44806;48.008;13.666;2022-09-09T11:21:29;18.10;99.90
59025;DHT22;44806;48.008;13.666;2022-09-09T11:24:00;18.10;99.90
59025;DHT22;44806;48.008;13.666;2022-09-09T11:26:37;18.10;99.90
59025;DHT22;44806;48.008;13.666;2022-09-09T11:32:24;17.90;99.90
59025;DHT22;44806;48.008;13.666;2022-09-09T11:34:57;17.70;99.90
59025;DHT22;44806;48.008;13.666;2022-09-09T11:40:31;17.50;99.90
59025;DHT22;44806;48.008;13.666;2022-09-09T11:43:04;17.60;99.90
59025;DHT22;44806;48.008;13.666;2022-09-09T11:45:33;17.70;99.90
59025;DHT22;44806;48.008;13.666;2022-09-09T11:48:04;17.60;99.90
59025;DHT22;44806;48.008;13.666;2022-09-09T11:50:36;17.60;99.90
59025;DHT22;44806;48.008;13.666;2022-09-09T11:53:19;17.50;99.90
59025;DHT22;44806;48.008;13.666;2022-09-09T11:56:06;17.50;99.90
59025;DHT22;44806;48.008;13.666;2022-09-09T11:58:43;17.40;99.90
59025;DHT22;44806;48.008;13.666;2022-09-09T12:01:15;17.40;99.90
59025;DHT22;44806;48.008;13.666;2022-09-09T12:03:47;17.60;99.90
59025;DHT22;44806;48.008;13.666;2022-09-09T12:06:18;17.60;99.90
59025;DHT22;44806;48.008;13.666;2022-09-09T12:08:54;17.60;99.90
59025;DHT22;44806;48.008;13.666;2022-09-09T12:11:25;17.60;99.90
59025;DHT22;44806;48.008;13.666;2022-09-09T12:13:54;17.70;99.90
59025;DHT22;44806;48.008;13.666;2022-09-09T12:16:30;17.90;99.90
59025;DHT22;44806;48.008;13.666;2022-09-09T12:19:14;18.00;99.90
59025;DHT22;44806;48.008;13.666;2022-09-09T12:21:48;17.90;99.90
59025;DHT22;44806;48.008;13.666;2022-09-09T12:24:22;17.80;99.90
59025;DHT22;44806;48.008;13.666;2022-09-09T12:26:58;17.80;99.90
59025;DHT22;44806;48.008;13.666;2022-09-09T12:29:30;17.90;99.90
59025;DHT22;44806;48.008;13.666;2022-09-09T12:32:05;17.90;99.90
59025;DHT22;44806;48.008;13.666;2022-09-09T12:34:38;18.00;99.90
59025;DHT22;44806;48.008;13.666;2022-09-09T12:37:14;18.00;99.90
59025;DHT22;44806;48.008;13.666;2022-09-09T12:39:47;18.10;99.90
59025;DHT22;44806;48.008;13.666;2022-09-09T12:42:18;18.00;99.90
59025;DHT22;44806;48.008;13.666;2022-09-09T12:44:56;17.90;99.90
59025;DHT22;44806;48.008;13.666;2022-09-09T12:47:30;17.80;99.90
59025;DHT22;44806;48.008;13.666;2022-09-09T12:50:01;17.80;99.90
59025;DHT22;44806;48.008;13.666;2022-09-09T12:52:31;17.90;99.90
59025;DHT22;44806;48.008;13.666;2022-09-09T12:55:02;18.00;99.90
59025;DHT22;44806;48.008;13.666;2022-09-09T12:57:34;18.00;99.90
59025;DHT22;44806;48.008;13.666;2022-09-09T13:00:12;18.00;99.90
59025;DHT22;44806;48.008;13.666;2022-09-09T13:02:49;18.00;99.90
59025;DHT22;44806;48.008;13.666;2022-09-09T13:05:21;18.00;99.90
59025;DHT22;44806;48.008;13.666;2022-09-09T13:07:49;18.10;99.90
59025;DHT22;44806;48.008;13.666;2022-09-09T13:10:26;18.00;99.90
59025;DHT22;44806;48.008;13.666;2022-09-09T13:12:55;17.90;99.90
59025;DHT22;44806;48.008;13.666;2022-09-09T13:15:26;17.90;99.90
59025;DHT22;44806;48.008;13.666;2022-09-09T13:18:01;17.90;99.90
59025;DHT22;44806;48.008;13.666;2022-09-09T13:20:31;18.00;99.90
59025;DHT22;44806;48.008;13.666;2022-09-09T13:22:58;18.00;99.90
59025;DHT22;44806;48.008;13.666;2022-09-09T13:25:26;18.00;99.90
59025;DHT22;44806;48.008;13.666;2022-09-09T13:27:59;18.20;99.90
59025;DHT22;44806;48.008;13.666;2022-09-09T13:30:29;18.10;99.90
59025;DHT22;44806;48.008;13.666;2022-09-09T13:33:17;18.10;99.90
59025;DHT22;44806;48.008;13.666;2022-09-09T13:35:49;18.10;99.90
59025;DHT22;44806;48.008;13.666;2022-09-09T13:38:17;18.10;99.90
59025;DHT22;44806;48.008;13.666;2022-09-09T13:40:58;18.10;99.90
59025;DHT22;44806;48.008;13.666;2022-09-09T13:43:29;17.90;99.90
59025;DHT22;44806;48.008;13.666;2022-09-09T13:45:58;17.80;99.90
59025;DHT22;44806;48.008;13.666;2022-09-09T13:48:26;17.80;99.90
59025;DHT22;44806;48.008;13.666;2022-09-09T13:50:57;17.80;99.90
59025;DHT22;44806;48.008;13.666;2022-09-09T13:53:24;17.70;99.90
59025;DHT22;44806;48.008;13.666;2022-09-09T13:55:52;17.70;99.90
59025;DHT22;44806;48.008;13.666;2022-09-09T13:58:19;17.80;99.90
59025;DHT22;44806;48.008;13.666;2022-09-09T14:00:48;17.80;99.90
59025;DHT22;44806;48.008;13.666;2022-09-09T14:03:16;17.70;99.90
59025;DHT22;44806;48.008;13.666;2022-09-09T14:05:44;17.70;99.90
59025;DHT22;44806;48.008;13.666;2022-09-09T14:08:25;17.70;99.90
59025;DHT22;44806;48.008;13.666;2022-09-09T14:10:53;17.90;99.90
59025;DHT22;44806;48.008;13.666;2022-09-09T14:13:25;17.90;99.90
59025;DHT22;44806;48.008;13.666;2022-09-09T14:15:52;17.80;99.90
59025;DHT22;44806;48.008;13.666;2022-09-09T14:18:19;17.70;99.90
59025;DHT22;44806;48.008;13.666;2022-09-09T14:20:48;17.70;99.90
59025;DHT22;44806;48.008;13.666;2022-09-09T14:23:17;17.80;99.90
59025;DHT22;44806;48.008;13.666;2022-09-09T14:25:44;17.90;99.90
59025;DHT22;44806;48.008;13.666;2022-09-09T14:28:13;18.00;99.90
59025;DHT22;44806;48.008;13.666;2022-09-09T14:30:42;17.90;99.90
59025;DHT22;44806;48.008;13.666;2022-09-09T14:33:12;17.80;99.90
59025;DHT22;44806;48.008;13.666;2022-09-09T14:35:39;17.90;99.90
59025;DHT22;44806;48.008;13.666;2022-09-09T14:38:07;18.00;99.90
59025;DHT22;44806;48.008;13.666;2022-09-09T14:40:36;18.00;99.90
59025;DHT22;44806;48.008;13.666;2022-09-09T14:43:04;17.90;99.90
59025;DHT22;44806;48.008;13.666;2022-09-09T14:45:32;17.90;99.90
59025;DHT22;44806;48.008;13.666;2022-09-09T14:47:59;17.90;99.90
59025;DHT22;44806;48.008;13.666;2022-09-09T14:50:26;17.90;99.90
59025;DHT22;44806;48.008;13.666;2022-09-09T14:52:54;18.00;99.90
59025;DHT22;44806;48.008;13.666;2022-09-09T14:55:21;17.90;99.90
59025;DHT22;44806;48.008;13.666;2022-09-09T14:57:50;17.80;99.90
59025;DHT22;44806;48.008;13.666;2022-09-09T15:00:17;17.80;99.90
59025;DHT22;44806;48.008;13.666;2022-09-09T15:02:44;17.70;99.90
59025;DHT22;44806;48.008;13.666;2022-09-09T15:05:12;17.70;99.90
59025;DHT22;44806;48.008;13.666;2022-09-09T15:07:39;17.70;99.90
59025;DHT22;44806;48.008;13.666;2022-09-09T15:10:06;17.60;99.90
59025;DHT22;44806;48.008;13.666;2022-09-09T15:12:33;17.50;99.90
59025;DHT22;44806;48.008;13.666;2022-09-09T15:15:04;17.50;99.90
59025;DHT22;44806;48.008;13.666;2022-09-09T15:17:31;17.40;99.90
59025;DHT22;44806;48.008;13.666;2022-09-09T15:19:58;17.30;99.90
59025;DHT22;44806;48.008;13.666;2022-09-09T15:22:28;17.20;99.90
59025;DHT22;44806;48.008;13.666;2022-09-09T15:24:55;17.20;99.90
59025;DHT22;44806;48.008;13.666;2022-09-09T15:27:23;17.10;99.90
59025;DHT22;44806;48.008;13.666;2022-09-09T15:29:50;17.00;99.90
59025;DHT22;44806;48.008;13.666;2022-09-09T15:32:19;16.90;99.90
59025;DHT22;44806;48.008;13.666;2022-09-09T15:34:47;17.00;99.90
59025;DHT22;44806;48.008;13.666;2022-09-09T15:37:17;17.10;99.90
59025;DHT22;44806;48.008;13.666;2022-09-09T15:39:44;17.10;99.90
59025;DHT22;44806;48.008;13.666;2022-09-09T15:42:12;17.00;99.90
59025;DHT22;44806;48.008;13.666;2022-09-09T15:44:40;17.00;99.90
59025;DHT22;44806;48.008;13.666;2022-09-09T15:47:11;17.00;99.90
59025;DHT22;44806;48.008;13.666;2022-09-09T15:49:40;17.00;99.90